Time;durP1;ratioP1;P1;durP2;ratioP2;P2;SDS_P1;SDS_P2;PMS_P1;PMS_P2;Temp;Humidity;BMP_temperature;BMP_pressure;BME280_temperature;BME280_humidity;BME280_pressure;Samples;Min_cycle;Max_cycle;Signal;HPM_P1;HPM_P2
2023/08/13 00:03:56;;;;;;;6.70;2.57;;;;;;;21.43;55.40;100240.91;30964491;28;111323;-69
2023/08/13 00:18:56;;;;;;;3.67;2.20;;;;;;;21.55;55.54;100257.13;30963357;28;97260;-68
2023/08/13 00:33:57;;;;;;;4.30;2.57;;;;;;;21.58;55.62;100253.94;30961908;28;115437;-69
2023/08/13 00:48:59;;;;;;;5.10;2.53;;;;;;;21.53;55.57;100245.72;30960171;28;109485;-69
2023/08/13 01:03:59;;;;;;;4.80;2.50;;;;;;;21.32;56.27;100249.88;30980214;28;97044;-69
2023/08/13 01:19:00;;;;;;;6.10;2.80;;;;;;;21.19;56.70;100256.38;30979756;28;97217;-69
2023/08/13 01:34:02;;;;;;;3.60;2.67;;;;;;;21.29;57.18;100266.59;30978635;28;97441;-69
2023/08/13 01:49:02;;;;;;;4.77;2.63;;;;;;;21.28;57.27;100260.38;30977429;28;97033;-69
2023/08/13 02:04:03;;;;;;;4.30;2.30;;;;;;;21.18;58.07;100260.16;30975734;28;96755;-69
2023/08/13 02:19:03;;;;;;;5.72;2.58;;;;;;;21.07;58.52;100286.19;30974848;28;97256;-69
2023/08/13 02:34:04;;;;;;;4.23;2.90;;;;;;;20.99;59.15;100296.56;30973239;28;96754;-69
2023/08/13 02:49:04;;;;;;;3.27;2.63;;;;;;;21.02;59.13;100293.38;30971959;28;97170;-69
2023/08/13 03:04:06;;;;;;;4.10;2.93;;;;;;;20.94;59.19;100299.97;30970377;28;100677;-69
2023/08/13 03:19:06;;;;;;;6.03;2.80;;;;;;;20.96;59.38;100314.13;30968431;28;97340;-69
2023/08/13 03:34:06;;;;;;;5.90;2.70;;;;;;;20.95;59.53;100324.13;30967439;28;97301;-69
2023/08/13 03:49:07;;;;;;;5.07;2.70;;;;;;;21.10;59.52;100334.50;30965851;28;97558;-69
2023/08/13 04:04:07;;;;;;;4.83;2.30;;;;;;;21.31;59.38;100326.81;30963804;28;115843;-68
2023/08/13 04:19:07;;;;;;;3.33;2.30;;;;;;;21.62;59.29;100319.31;30962845;28;97427;-69
2023/08/13 04:34:08;;;;;;;4.57;2.20;;;;;;;21.94;58.98;100327.81;30960012;28;117985;-69
2023/08/13 04:49:08;;;;;;;8.07;2.67;;;;;;;22.12;58.22;100337.63;30958198;28;99780;-69
2023/08/13 05:04:08;;;;;;;3.65;2.10;;;;;;;22.28;58.39;100338.75;30958629;28;97271;-69
2023/08/13 05:19:09;;;;;;;5.55;2.42;;;;;;;22.45;58.34;100359.69;30955646;28;103216;-69
2023/08/13 05:34:09;;;;;;;3.25;2.25;;;;;;;22.73;58.37;100366.09;30956620;28;97710;-69
2023/08/13 05:49:09;;;;;;;;;;;;;;;22.96;58.01;100381.41;30972683;28;98090;-69
2023/08/13 06:04:09;;;;;;;3.37;2.10;;;;;;;22.88;58.59;100379.94;30976688;28;97062;-69
2023/08/13 06:19:10;;;;;;;;;;;;;;;23.73;58.42;100390.69;30973588;28;114036;-68
2023/08/13 06:34:10;;;;;;;3.37;2.17;;;;;;;24.69;57.02;100384.88;30975480;28;97496;-69
2023/08/13 06:49:10;;;;;;;5.22;2.33;;;;;;;25.41;56.35;100401.78;30971324;28;97079;-70
2023/08/13 07:04:11;;;;;;;3.53;2.13;;;;;;;26.66;54.25;100402.72;30969930;28;98533;-69
2023/08/13 07:19:11;;;;;;;5.07;2.50;;;;;;;26.88;52.84;100423.53;30966810;28;106862;-69
2023/08/13 07:34:11;;;;;;;3.72;2.30;;;;;;;27.68;52.28;100425.59;30967177;28;97013;-69
2023/08/13 07:49:12;;;;;;;4.32;2.35;;;;;;;28.89;49.95;100436.41;30966277;28;97243;-69
2023/08/13 08:04:12;;;;;;;4.65;2.78;;;;;;;30.22;47.05;100430.56;30963824;28;97114;-70
2023/08/13 08:19:13;;;;;;;4.75;2.58;;;;;;;30.43;46.41;100427.53;30963270;28;106795;-70
2023/08/13 08:34:14;;;;;;;3.83;2.23;;;;;;;31.25;44.30;100431.72;30961750;28;97429;-69
2023/08/13 08:49:16;;;;;;;4.25;2.38;;;;;;;31.65;43.05;100423.81;30958871;28;106906;-69
2023/08/13 09:04:17;;;;;;;4.07;1.97;;;;;;;31.95;42.83;100409.72;30957985;28;96763;-69
2023/08/13 09:19:18;;;;;;;2.80;1.80;;;;;;;32.87;40.11;100412.25;30966367;28;108452;-70
2023/08/13 09:34:20;;;;;;;3.67;1.90;;;;;;;37.19;34.37;100410.44;30977763;28;97516;-70
2023/08/13 09:49:23;;;;;;;2.13;1.40;;;;;;;36.61;34.41;100406.81;30976805;28;96931;-69
2023/08/13 10:04:23;;;;;;;2.83;1.67;;;;;;;37.58;32.66;100399.00;30976443;28;97595;-69
2023/08/13 10:19:29;;;;;;;1.63;1.40;;;;;;;37.12;31.48;100401.88;30973580;28;97310;-70
2023/08/13 10:34:39;;;;;;;2.33;1.70;;;;;;;36.44;32.86;100411.38;30970823;28;97177;-70
2023/08/13 10:49:40;;;;;;;3.50;2.07;;;;;;;36.74;32.18;100408.47;30970381;28;97191;-69
2023/08/13 11:04:43;;;;;;;3.07;1.80;;;;;;;37.16;31.78;100402.00;30968728;28;98514;-69
2023/08/13 11:19:44;;;;;;;1.80;1.30;;;;;;;37.07;31.25;100394.59;30966947;28;96731;-70
2023/08/13 11:34:44;;;;;;;3.35;1.50;;;;;;;38.32;30.31;100386.94;30967141;28;97309;-70
2023/08/13 11:49:45;;;;;;;1.98;1.20;;;;;;;39.69;28.29;100376.50;30966315;28;97367;-70
2023/08/13 12:04:48;;;;;;;3.47;1.70;;;;;;;39.33;27.25;100370.06;30964029;28;97293;-69
2023/08/13 12:19:48;;;;;;;3.00;1.47;;;;;;;39.57;27.04;100360.69;30962368;28;97369;-69
2023/08/13 12:34:48;;;;;;;2.17;1.30;;;;;;;38.61;28.69;100346.78;30961070;28;97325;-70
2023/08/13 12:49:48;;;;;;;3.08;2.10;;;;;;;39.03;28.07;100340.72;30964007;28;111053;-69
2023/08/13 13:04:50;;;;;;;2.80;1.75;;;;;;;38.55;28.06;100325.94;30980080;28;113989;-69
2023/08/13 13:19:51;;;;;;;2.27;1.63;;;;;;;36.92;30.76;100325.84;30979752;28;97348;-69
2023/08/13 13:34:51;;;;;;;4.72;1.88;;;;;;;35.13;32.95;100315.25;30979220;28;110693;-70
2023/08/13 13:49:52;;;;;;;3.15;1.70;;;;;;;34.18;34.51;100317.94;30977000;28;96858;-69
2023/08/13 14:04:52;;;;;;;3.15;2.03;;;;;;;33.51;35.72;100311.72;30973558;28;113441;-70
2023/08/13 14:19:53;;;;;;;2.33;1.50;;;;;;;32.67;37.08;100297.72;30973033;28;96892;-70
2023/08/13 14:34:53;;;;;;;3.03;1.88;;;;;;;31.84;37.68;100290.69;30971645;28;97427;-70
2023/08/13 14:49:53;;;;;;;2.95;1.50;;;;;;;31.75;38.00;100284.28;30970663;28;98718;-69
2023/08/13 15:04:54;;;;;;;3.30;1.98;;;;;;;32.48;37.26;100289.69;30970705;28;97389;-70
2023/08/13 15:19:54;;;;;;;3.30;1.67;;;;;;;33.18;35.98;100270.69;30967676;28;111892;-69
2023/08/13 15:34:54;;;;;;;4.63;1.60;;;;;;;32.21;37.00;100267.47;30966418;28;97186;-70
2023/08/13 15:49:55;;;;;;;3.92;1.63;;;;;;;31.49;38.22;100282.06;30965911;28;97229;-69
2023/08/13 16:04:55;;;;;;;2.63;1.58;;;;;;;30.72;39.79;100268.72;30963826;28;97559;-70
2023/08/13 16:19:55;;;;;;;2.20;1.73;;;;;;;30.30;40.74;100258.75;30961834;28;96830;-69
2023/08/13 16:34:56;;;;;;;3.58;1.70;;;;;;;29.76;41.41;100253.53;30961035;28;101715;-70
2023/08/13 16:49:56;;;;;;;2.78;1.70;;;;;;;29.38;42.22;100248.84;30960604;28;97505;-70
2023/08/13 17:04:57;;;;;;;3.28;1.95;;;;;;;28.99;43.32;100254.53;30958833;28;97478;-69
2023/08/13 17:19:59;;;;;;;3.13;2.30;;;;;;;28.67;43.95;100254.06;30956949;28;113302;-69
2023/08/13 17:34:59;;;;;;;3.67;2.07;;;;;;;28.22;44.88;100269.00;30959665;28;96848;-69
2023/08/13 17:50:00;;;;;;;6.88;2.67;;;;;;;27.57;46.75;100280.88;30975990;28;97510;-69
2023/08/13 18:05:01;;;;;;;3.33;1.90;;;;;;;26.97;48.58;100285.22;30973709;28;97291;-69
2023/08/13 18:20:03;;;;;;;6.20;2.33;;;;;;;26.34;50.59;100294.56;30971846;28;97099;-69
2023/08/13 18:35:04;;;;;;;4.73;2.40;;;;;;;25.82;52.44;100292.81;30972761;28;97083;-70
2023/08/13 18:50:05;;;;;;;3.63;3.00;;;;;;;25.26;54.11;100307.91;30968724;28;97214;-70
2023/08/13 19:05:06;;;;;;;5.67;3.50;;;;;;;24.86;55.48;100308.47;30967995;28;97094;-72
2023/08/13 19:20:07;;;;;;;7.95;4.00;;;;;;;25.38;57.64;100312.31;30964952;28;97558;-73
2023/08/13 19:35:07;;;;;;;7.25;3.45;;;;;;;25.53;58.53;100315.09;30965079;28;97470;-73
2023/08/13 19:50:08;;;;;;;7.75;3.40;;;;;;;25.38;60.06;100309.59;30951574;28;99528;-72
2023/08/13 20:05:09;;;;;;;7.60;3.53;;;;;;;25.46;60.41;100306.34;30952764;28;97428;-70
2023/08/13 20:20:12;;;;;;;5.23;3.60;;;;;;;24.92;62.80;100308.25;30956067;28;97346;-73
2023/08/13 20:35:12;;;;;;;5.87;3.60;;;;;;;24.58;64.05;100313.97;30953559;28;97349;-73
2023/08/13 20:50:12;;;;;;;5.13;4.00;;;;;;;24.38;65.10;100320.06;30949233;28;106162;-74
2023/08/13 21:05:13;;;;;;;5.22;4.10;;;;;;;24.14;66.01;100319.59;30875728;28;97075;-74
2023/08/13 21:20:13;;;;;;;8.38;4.55;;;;;;;23.79;65.89;100323.56;30851285;28;97477;-73
2023/08/13 21:35:13;;;;;;;9.32;5.60;;;;;;;23.62;66.85;100340.78;30854851;28;97312;-74
2023/08/13 21:50:14;;;;;;;6.13;3.85;;;;;;;23.46;66.99;100337.03;30853986;28;105292;-75
2023/08/13 22:05:14;;;;;;;7.65;3.70;;;;;;;23.25;67.33;100338.69;30944399;28;98864;-74
2023/08/13 22:20:14;;;;;;;4.95;3.28;;;;;;;23.04;68.01;100345.66;30973234;28;97274;-73
2023/08/13 22:35:15;;;;;;;4.63;3.97;;;;;;;22.81;68.30;100331.22;30973824;28;97075;-74
2023/08/13 22:50:15;;;;;;;6.30;4.15;;;;;;;22.65;68.81;100329.34;30972047;28;97720;-74
2023/08/13 23:05:16;;;;;;;;;;;;;;;22.63;69.57;100324.13;30971077;28;97115;-73
2023/08/13 23:20:17;;;;;;;5.90;4.83;;;;;;;22.43;69.47;100312.94;30969404;28;97132;-74
2023/08/13 23:35:18;;;;;;;9.47;4.33;;;;;;;22.36;70.03;100306.88;30967343;28;97029;-74
2023/08/13 23:50:18;;;;;;;;;;;;;;;22.27;69.63;100309.16;30966408;28;96722;-72
